createdAt,value
2023-05-24T00:00:24.162Z,88499.00
2023-05-24T00:01:24.235Z,88497.00
2023-05-24T00:02:24.307Z,88497.00
2023-05-24T00:03:24.396Z,88497.00
2023-05-24T00:04:24.468Z,88497.00
2023-05-24T00:05:24.383Z,88497.00
2023-05-24T00:06:24.431Z,88497.00
2023-05-24T00:07:24.481Z,88497.00
2023-05-24T00:08:24.534Z,88495.00
2023-05-24T00:09:24.564Z,88495.00
2023-05-24T00:10:24.627Z,88497.00
2023-05-24T00:11:24.650Z,88495.00
2023-05-24T00:12:24.686Z,88493.00
2023-05-24T00:13:24.737Z,88497.00
2023-05-24T00:14:24.790Z,88493.00
2023-05-24T00:15:24.840Z,88493.00
2023-05-24T00:16:24.902Z,88497.00
2023-05-24T00:17:24.945Z,88497.00
2023-05-24T00:18:24.943Z,88499.00
2023-05-24T00:19:24.954Z,88501.00
2023-05-24T00:20:24.997Z,88499.00
2023-05-24T00:21:24.959Z,88499.00
2023-05-24T00:22:24.959Z,88501.00
2023-05-24T00:23:24.975Z,88501.00
2023-05-24T00:24:24.973Z,88501.00
2023-05-24T00:25:24.985Z,88503.00
2023-05-24T00:26:25.006Z,88503.00
2023-05-24T00:27:24.987Z,88501.00
2023-05-24T00:28:25.021Z,88503.00
2023-05-24T00:29:25.002Z,88503.00
2023-05-24T00:30:25.024Z,88497.00
2023-05-24T00:31:25.076Z,88499.00
2023-05-24T00:32:25.050Z,88503.00
2023-05-24T00:33:25.036Z,88497.00
2023-05-24T00:34:25.039Z,88497.00
2023-05-24T00:35:25.040Z,88497.00
2023-05-24T00:36:25.064Z,88497.00
2023-05-24T00:37:25.052Z,88499.00
2023-05-24T00:38:25.074Z,88499.00
2023-05-24T00:39:25.074Z,88497.00
2023-05-24T00:40:25.087Z,88497.00
2023-05-24T00:41:25.088Z,88495.00
2023-05-24T00:42:25.091Z,88495.00
2023-05-24T00:43:25.097Z,88495.00
2023-05-24T00:44:25.104Z,88495.00
2023-05-24T00:45:25.124Z,88493.00
2023-05-24T00:46:25.168Z,88491.00
2023-05-24T00:47:25.110Z,88493.00
2023-05-24T00:48:25.107Z,88495.00
2023-05-24T00:49:25.182Z,88493.00
2023-05-24T00:50:25.211Z,88495.00
2023-05-24T00:51:25.271Z,88495.00
2023-05-24T00:52:25.284Z,88495.00
2023-05-24T00:53:25.321Z,88495.00
2023-05-24T00:54:25.373Z,88495.00
2023-05-24T00:55:25.415Z,88493.00
2023-05-24T00:56:25.477Z,88493.00
2023-05-24T00:57:25.510Z,88493.00
2023-05-24T00:58:25.557Z,88491.00
2023-05-24T00:59:25.585Z,88487.00
2023-05-24T01:00:25.623Z,88489.00
2023-05-24T01:01:25.871Z,88489.00
2023-05-24T01:02:25.790Z,88487.00
2023-05-24T01:03:25.807Z,88485.00
2023-05-24T01:04:25.819Z,88485.00
2023-05-24T01:05:25.847Z,88485.00
2023-05-24T01:06:25.925Z,88483.00
2023-05-24T01:07:25.937Z,88483.00
2023-05-24T01:08:25.982Z,88485.00
2023-05-24T01:09:26.025Z,88483.00
2023-05-24T01:10:26.100Z,88483.00
2023-05-24T01:11:26.120Z,88483.00
2023-05-24T01:12:26.163Z,88483.00
2023-05-24T01:13:26.220Z,88483.00
2023-05-24T01:14:26.269Z,88481.00
2023-05-24T01:15:26.307Z,88481.00
2023-05-24T01:16:26.382Z,88479.00
2023-05-24T01:17:26.603Z,88481.00
2023-05-24T01:18:26.449Z,88483.00
2023-05-24T01:19:26.487Z,88481.00
2023-05-24T01:20:26.525Z,88479.00
2023-05-24T01:21:26.501Z,88481.00
2023-05-24T01:22:26.486Z,88479.00
2023-05-24T01:23:26.485Z,88479.00
2023-05-24T01:24:26.496Z,88477.00
2023-05-24T01:25:26.491Z,88477.00
2023-05-24T01:26:26.508Z,88477.00
2023-05-24T01:27:26.514Z,88479.00
2023-05-24T01:28:26.518Z,88479.00
2023-05-24T01:29:26.560Z,88479.00
2023-05-24T01:30:26.937Z,88479.00
2023-05-24T01:31:26.583Z,88479.00
2023-05-24T01:32:26.564Z,88481.00
2023-05-24T01:33:26.571Z,88481.00
2023-05-24T01:34:26.785Z,88481.00
2023-05-24T01:35:26.618Z,88481.00
2023-05-24T01:36:26.957Z,88481.00
2023-05-24T01:37:26.916Z,88481.00
2023-05-24T01:38:26.816Z,88479.00
2023-05-24T01:39:26.861Z,88479.00
2023-05-24T01:40:26.914Z,88483.00
2023-05-24T01:41:27.289Z,88477.00
2023-05-24T01:42:27.064Z,88481.00
2023-05-24T01:43:27.139Z,88477.00
2023-05-24T01:44:27.170Z,88477.00
2023-05-24T01:45:27.203Z,88477.00
2023-05-24T01:46:27.302Z,88477.00
2023-05-24T01:47:27.405Z,88477.00
2023-05-24T01:48:27.369Z,88477.00
2023-05-24T01:49:27.420Z,88479.00
2023-05-24T01:50:27.474Z,88477.00
2023-05-24T01:51:27.525Z,88477.00
2023-05-24T01:52:27.624Z,88479.00
2023-05-24T01:53:27.592Z,88479.00
2023-05-24T01:54:27.632Z,88481.00
2023-05-24T01:55:27.676Z,88481.00
2023-05-24T01:56:27.724Z,88479.00
2023-05-24T01:57:27.769Z,88479.00
2023-05-24T01:58:27.813Z,88477.00
2023-05-24T01:59:27.847Z,88477.00
2023-05-24T02:00:27.902Z,88473.00
2023-05-24T02:01:27.929Z,88475.00
2023-05-24T02:02:27.993Z,88469.00
2023-05-24T02:03:27.963Z,88469.00
2023-05-24T02:04:27.951Z,88467.00
2023-05-24T02:05:27.937Z,88469.00
2023-05-24T02:06:27.955Z,88467.00
2023-05-24T02:07:27.954Z,88463.00
2023-05-24T02:08:27.954Z,88463.00
2023-05-24T02:09:27.958Z,88463.00
2023-05-24T02:10:27.991Z,88461.00
2023-05-24T02:11:27.993Z,88463.00
2023-05-24T02:12:27.989Z,88461.00
2023-05-24T02:13:27.998Z,88463.00
2023-05-24T02:14:28.008Z,88460.00
2023-05-24T02:15:28.026Z,88460.00
2023-05-24T02:16:28.064Z,88458.00
2023-05-24T02:17:28.176Z,88460.00
2023-05-24T02:18:28.141Z,88460.00
2023-05-24T02:19:28.194Z,88460.00
2023-05-24T02:20:28.269Z,88460.00
2023-05-24T02:21:28.288Z,88461.00
2023-05-24T02:22:28.336Z,88458.00
2023-05-24T02:23:28.378Z,88456.00
2023-05-24T02:24:28.453Z,88458.00
2023-05-24T02:25:28.464Z,88454.00
2023-05-24T02:26:28.518Z,88456.00
2023-05-24T02:27:28.557Z,88454.00
2023-05-24T02:28:28.612Z,88454.00
2023-05-24T02:29:28.673Z,88452.00
2023-05-24T02:30:28.742Z,88452.00
2023-05-24T02:31:28.876Z,88450.00
2023-05-24T02:32:28.933Z,88452.00
2023-05-24T02:33:28.885Z,88450.00
2023-05-24T02:34:28.939Z,88450.00
2023-05-24T02:35:28.996Z,88450.00
2023-05-24T02:36:29.038Z,88450.00
2023-05-24T02:37:29.088Z,88448.00
2023-05-24T02:38:29.137Z,88448.00
2023-05-24T02:39:29.185Z,88448.00
2023-05-24T02:40:29.255Z,88446.00
2023-05-24T02:41:29.297Z,88446.00
2023-05-24T02:42:29.329Z,88444.00
2023-05-24T02:43:29.395Z,88446.00
2023-05-24T02:44:29.431Z,88442.00
2023-05-24T02:45:29.495Z,88442.00
2023-05-24T02:46:29.585Z,88442.00
2023-05-24T02:47:29.579Z,88440.00
2023-05-24T02:48:29.612Z,88438.00
2023-05-24T02:49:29.664Z,88438.00
2023-05-24T02:50:29.726Z,88438.00
2023-05-24T02:51:29.818Z,88438.00
2023-05-24T02:52:29.830Z,88442.00
2023-05-24T02:53:29.877Z,88440.00
2023-05-24T02:54:29.914Z,88442.00
2023-05-24T02:55:29.990Z,88442.00
2023-05-24T02:56:30.027Z,88442.00
2023-05-24T02:57:30.071Z,88440.00
2023-05-24T02:58:30.133Z,88438.00
2023-05-24T02:59:30.186Z,88436.00
2023-05-24T03:00:30.225Z,88436.00
2023-05-24T03:01:30.332Z,88436.00
2023-05-24T03:02:30.412Z,88436.00
2023-05-24T03:03:30.438Z,88432.00
2023-05-24T03:04:30.436Z,88430.00
2023-05-24T03:05:30.495Z,88430.00
2023-05-24T03:06:30.545Z,88428.00
2023-05-24T03:07:30.600Z,88426.00
2023-05-24T03:08:30.649Z,88430.00
2023-05-24T03:09:30.708Z,88424.00
2023-05-24T03:10:30.756Z,88426.00
2023-05-24T03:11:30.827Z,88422.00
2023-05-24T03:12:30.879Z,88424.00
2023-05-24T03:13:30.940Z,88424.00
2023-05-24T03:14:30.987Z,88424.00
2023-05-24T03:15:31.040Z,88422.00
2023-05-24T03:16:31.138Z,88422.00
2023-05-24T03:17:31.209Z,88422.00
2023-05-24T03:18:31.221Z,88422.00
2023-05-24T03:19:31.265Z,88420.00
2023-05-24T03:20:31.390Z,88420.00
2023-05-24T03:21:31.350Z,88418.00
2023-05-24T03:22:31.350Z,88418.00
2023-05-24T03:23:31.352Z,88418.00
2023-05-24T03:24:31.361Z,88418.00
2023-05-24T03:25:31.369Z,88420.00
2023-05-24T03:26:31.378Z,88422.00
2023-05-24T03:27:31.410Z,88424.00
2023-05-24T03:28:31.402Z,88424.00
2023-05-24T03:29:31.414Z,88424.00
2023-05-24T03:30:31.412Z,88424.00
2023-05-24T03:31:31.473Z,88428.00
2023-05-24T03:32:31.458Z,88428.00
2023-05-24T03:33:31.452Z,88428.00
2023-05-24T03:34:31.512Z,88430.00
2023-05-24T03:35:31.595Z,88432.00
2023-05-24T03:36:31.625Z,88432.00
2023-05-24T03:37:31.702Z,88432.00
2023-05-24T03:38:31.740Z,88430.00
2023-05-24T03:39:31.819Z,88430.00
2023-05-24T03:40:31.868Z,88428.00
2023-05-24T03:41:31.918Z,88432.00
2023-05-24T03:42:31.969Z,88428.00
2023-05-24T03:43:32.041Z,88428.00
2023-05-24T03:44:32.087Z,88428.00
2023-05-24T03:45:39.331Z,88432.00
2023-05-24T03:46:33.221Z,88428.00
2023-05-24T03:47:32.183Z,88430.00
2023-05-24T03:48:32.177Z,88426.00
2023-05-24T03:49:32.186Z,88426.00
2023-05-24T03:50:32.191Z,88428.00
2023-05-24T03:51:32.214Z,88428.00
2023-05-24T03:52:32.230Z,88428.00
2023-05-24T03:53:32.252Z,88428.00
2023-05-24T03:54:32.253Z,88430.00
2023-05-24T03:55:32.262Z,88428.00
2023-05-24T03:56:32.270Z,88428.00
2023-05-24T03:57:32.280Z,88428.00
2023-05-24T03:58:32.295Z,88428.00
2023-05-24T03:59:32.305Z,88430.00
2023-05-24T04:00:32.314Z,88430.00
2023-05-24T04:01:34.534Z,88432.00
2023-05-24T04:02:32.427Z,88432.00
2023-05-24T04:03:32.370Z,88434.00
2023-05-24T04:04:32.358Z,88432.00
2023-05-24T04:05:32.382Z,88434.00
2023-05-24T04:06:32.384Z,88436.00
2023-05-24T04:07:32.385Z,88432.00
2023-05-24T04:08:32.416Z,88432.00
2023-05-24T04:09:32.397Z,88434.00
2023-05-24T04:10:32.417Z,88436.00
2023-05-24T04:11:32.462Z,88436.00
2023-05-24T04:12:32.421Z,88438.00
2023-05-24T04:13:32.421Z,88438.00
2023-05-24T04:14:32.422Z,88438.00
2023-05-24T04:15:32.419Z,88440.00
2023-05-24T04:16:32.474Z,88438.00
2023-05-24T04:17:32.526Z,88442.00
2023-05-24T04:18:32.492Z,88440.00
2023-05-24T04:19:32.457Z,88444.00
2023-05-24T04:20:32.652Z,88442.00
2023-05-24T04:21:32.487Z,88442.00
2023-05-24T04:22:32.468Z,88442.00
2023-05-24T04:23:32.476Z,88446.00
2023-05-24T04:24:32.521Z,88446.00
2023-05-24T04:25:32.494Z,88442.00
2023-05-24T04:26:32.498Z,88444.00
2023-05-24T04:27:32.521Z,88440.00
2023-05-24T04:28:32.507Z,88444.00
2023-05-24T04:29:32.540Z,88444.00
2023-05-24T04:30:32.541Z,88442.00
2023-05-24T04:31:32.599Z,88448.00
2023-05-24T04:32:32.579Z,88444.00
2023-05-24T04:33:32.573Z,88444.00
2023-05-24T04:34:32.581Z,88444.00
2023-05-24T04:35:32.607Z,88446.00
2023-05-24T04:36:32.618Z,88444.00
2023-05-24T04:37:32.624Z,88446.00
2023-05-24T04:38:32.627Z,88448.00
2023-05-24T04:39:32.642Z,88442.00
2023-05-24T04:40:32.665Z,88446.00
2023-05-24T04:41:32.664Z,88444.00
2023-05-24T04:42:32.658Z,88440.00
2023-05-24T04:43:32.656Z,88446.00
2023-05-24T04:44:32.675Z,88444.00
2023-05-24T04:45:32.669Z,88440.00
2023-05-24T04:46:32.722Z,88444.00
2023-05-24T04:47:32.753Z,88440.00
2023-05-24T04:48:32.689Z,88440.00
2023-05-24T04:49:32.708Z,88440.00
2023-05-24T04:50:32.724Z,88438.00
2023-05-24T04:51:32.729Z,88438.00
2023-05-24T04:52:32.713Z,88434.00
2023-05-24T04:53:32.728Z,88436.00
2023-05-24T04:54:32.740Z,88434.00
2023-05-24T04:55:32.738Z,88432.00
2023-05-24T04:56:32.735Z,88432.00
2023-05-24T04:57:32.743Z,88432.00
2023-05-24T04:58:32.756Z,88432.00
2023-05-24T04:59:32.811Z,88432.00
2023-05-24T05:00:32.882Z,88432.00
2023-05-24T05:01:32.968Z,88434.00
2023-05-24T05:02:33.128Z,88432.00
2023-05-24T05:03:33.148Z,88432.00
2023-05-24T05:04:33.114Z,88432.00
2023-05-24T05:05:33.146Z,88430.00
2023-05-24T05:06:33.208Z,88430.00
2023-05-24T05:07:33.257Z,88428.00
2023-05-24T05:08:33.305Z,88430.00
2023-05-24T05:09:33.359Z,88428.00
2023-05-24T05:10:33.408Z,88426.00
2023-05-24T05:11:33.421Z,88426.00
2023-05-24T05:12:33.415Z,88428.00
2023-05-24T05:13:33.420Z,88424.00
2023-05-24T05:14:33.424Z,88424.00
2023-05-24T05:15:33.435Z,88426.00
2023-05-24T05:16:33.480Z,88424.00
2023-05-24T05:17:33.477Z,88424.00
2023-05-24T05:18:33.464Z,88426.00
2023-05-24T05:19:33.497Z,88426.00
2023-05-24T05:20:33.569Z,88424.00
2023-05-24T05:21:33.501Z,88430.00
2023-05-24T05:22:33.507Z,88428.00
2023-05-24T05:23:33.531Z,88430.00
2023-05-24T05:24:33.537Z,88428.00
2023-05-24T05:25:33.562Z,88434.00
2023-05-24T05:26:33.583Z,88430.00
2023-05-24T05:27:33.578Z,88428.00
2023-05-24T05:28:33.596Z,88428.00
2023-05-24T05:29:33.635Z,88430.00
2023-05-24T05:30:33.644Z,88430.00
2023-05-24T05:31:33.649Z,88434.00
2023-05-24T05:32:33.729Z,88432.00
2023-05-24T05:33:33.758Z,88430.00
2023-05-24T05:34:34.096Z,88432.00
2023-05-24T05:35:33.878Z,88432.00
2023-05-24T05:36:33.989Z,88432.00
2023-05-24T05:37:34.041Z,88430.00
2023-05-24T05:38:34.147Z,88428.00
2023-05-24T05:39:34.252Z,88432.00
2023-05-24T05:40:34.214Z,88430.00
2023-05-24T05:41:34.288Z,88434.00
2023-05-24T05:42:34.247Z,88432.00
2023-05-24T05:43:34.289Z,88432.00
2023-05-24T05:44:34.291Z,88432.00
2023-05-24T05:45:34.287Z,88432.00
2023-05-24T05:46:34.390Z,88432.00
2023-05-24T05:47:34.337Z,88430.00
2023-05-24T05:48:34.327Z,88426.00
2023-05-24T05:49:34.343Z,88428.00
2023-05-24T05:50:34.363Z,88428.00
2023-05-24T05:51:34.383Z,88426.00
2023-05-24T05:52:34.395Z,88428.00
2023-05-24T05:53:34.403Z,88426.00
2023-05-24T05:54:34.409Z,88428.00
2023-05-24T05:55:34.459Z,88430.00
2023-05-24T05:56:34.526Z,88428.00
2023-05-24T05:57:34.532Z,88430.00
2023-05-24T05:58:34.543Z,88428.00
2023-05-24T05:59:34.564Z,88428.00
2023-05-24T06:00:34.579Z,88428.00
2023-05-24T06:01:34.610Z,88426.00
2023-05-24T06:02:34.687Z,88428.00
2023-05-24T06:03:34.807Z,88426.00
2023-05-24T06:04:34.736Z,88428.00
2023-05-24T06:05:34.660Z,88428.00
2023-05-24T06:06:34.695Z,88426.00
2023-05-24T06:07:34.696Z,88426.00
2023-05-24T06:08:34.695Z,88424.00
2023-05-24T06:09:34.721Z,88426.00
2023-05-24T06:10:34.738Z,88426.00
2023-05-24T06:11:34.767Z,88426.00
2023-05-24T06:12:34.777Z,88426.00
2023-05-24T06:13:34.795Z,88430.00
2023-05-24T06:14:34.810Z,88428.00
2023-05-24T06:15:34.833Z,88428.00
2023-05-24T06:16:34.931Z,88426.00
2023-05-24T06:17:34.989Z,88426.00
2023-05-24T06:18:34.890Z,88432.00
2023-05-24T06:19:34.890Z,88430.00
2023-05-24T06:20:34.989Z,88430.00
2023-05-24T06:21:34.943Z,88430.00
2023-05-24T06:22:34.963Z,88430.00
2023-05-24T06:23:35.013Z,88428.00
2023-05-24T06:24:35.097Z,88428.00
2023-05-24T06:25:35.199Z,88430.00
2023-05-24T06:26:35.289Z,88428.00
2023-05-24T06:27:35.362Z,88426.00
2023-05-24T06:28:35.411Z,88426.00
2023-05-24T06:29:35.527Z,88426.00
2023-05-24T06:30:35.672Z,88430.00
2023-05-24T06:31:35.728Z,88426.00
2023-05-24T06:32:35.733Z,88428.00
2023-05-24T06:33:37.779Z,88432.00
2023-05-24T06:34:35.921Z,88432.00
2023-05-24T06:35:35.964Z,88432.00
2023-05-24T06:36:36.160Z,88434.00
2023-05-24T06:37:36.126Z,88434.00
2023-05-24T06:38:36.227Z,88436.00
2023-05-24T06:39:36.305Z,88432.00
2023-05-24T06:40:36.324Z,88434.00
2023-05-24T06:41:36.380Z,88436.00
2023-05-24T06:42:36.428Z,88434.00
2023-05-24T06:43:36.398Z,88434.00
2023-05-24T06:44:36.412Z,88436.00
2023-05-24T06:45:36.433Z,88436.00
2023-05-24T06:46:36.467Z,88438.00
2023-05-24T06:47:36.582Z,88440.00
2023-05-24T06:48:36.521Z,88438.00
2023-05-24T06:49:36.476Z,88434.00
2023-05-24T06:50:36.500Z,88434.00
2023-05-24T06:51:36.549Z,88436.00
2023-05-24T06:52:36.521Z,88434.00
2023-05-24T06:53:36.561Z,88432.00
2023-05-24T06:54:36.546Z,88434.00
2023-05-24T06:55:36.616Z,88430.00
2023-05-24T06:56:36.698Z,88430.00
2023-05-24T06:57:36.784Z,88432.00
2023-05-24T06:58:36.872Z,88430.00
2023-05-24T06:59:36.943Z,88430.00
2023-05-24T07:00:37.008Z,88428.00
2023-05-24T07:01:37.130Z,88428.00
2023-05-24T07:02:37.188Z,88426.00
2023-05-24T07:03:37.247Z,88424.00
2023-05-24T07:04:37.349Z,88428.00
2023-05-24T07:05:37.385Z,88428.00
2023-05-24T07:06:37.456Z,88430.00
2023-05-24T07:07:37.539Z,88428.00
2023-05-24T07:08:37.603Z,88428.00
2023-05-24T07:09:37.660Z,88430.00
2023-05-24T07:10:37.709Z,88430.00
2023-05-24T07:11:37.843Z,88426.00
2023-05-24T07:12:37.815Z,88432.00
2023-05-24T07:13:37.871Z,88430.00
2023-05-24T07:14:37.930Z,88430.00
2023-05-24T07:15:37.955Z,88434.00
2023-05-24T07:16:38.038Z,88434.00
2023-05-24T07:17:38.069Z,88434.00
2023-05-24T07:18:37.997Z,88432.00
2023-05-24T07:19:38.020Z,88436.00
2023-05-24T07:20:38.108Z,88434.00
2023-05-24T07:21:38.029Z,88434.00
2023-05-24T07:22:38.006Z,88434.00
2023-05-24T07:23:38.005Z,88432.00
2023-05-24T07:24:37.995Z,88432.00
2023-05-24T07:25:37.999Z,88430.00
2023-05-24T07:26:38.031Z,88430.00
2023-05-24T07:27:38.012Z,88428.00
2023-05-24T07:28:38.000Z,88428.00
2023-05-24T07:29:38.009Z,88426.00
2023-05-24T07:30:38.018Z,88424.00
2023-05-24T07:31:38.083Z,88424.00
2023-05-24T07:32:38.215Z,88420.00
2023-05-24T07:33:38.345Z,88422.00
2023-05-24T07:34:38.036Z,88422.00
2023-05-24T07:35:38.048Z,88420.00
2023-05-24T07:36:38.082Z,88422.00
2023-05-24T07:37:38.081Z,88424.00
2023-05-24T07:38:38.124Z,88424.00
2023-05-24T07:39:38.109Z,88424.00
2023-05-24T07:40:38.149Z,88424.00
2023-05-24T07:41:38.200Z,88422.00
2023-05-24T07:42:38.254Z,88422.00
2023-05-24T07:43:38.276Z,88420.00
2023-05-24T07:44:38.333Z,88416.00
2023-05-24T07:45:38.379Z,88416.00
2023-05-24T07:46:38.463Z,88418.00
2023-05-24T07:47:38.483Z,88414.00
2023-05-24T07:48:38.434Z,88416.00
2023-05-24T07:49:38.452Z,88416.00
2023-05-24T07:50:38.444Z,88411.00
2023-05-24T07:51:38.468Z,88413.00
2023-05-24T07:52:38.450Z,88411.00
2023-05-24T07:53:38.442Z,88413.00
2023-05-24T07:54:38.433Z,88409.00
2023-05-24T07:55:38.435Z,88413.00
2023-05-24T07:56:38.456Z,88411.00
2023-05-24T07:57:38.436Z,88413.00
2023-05-24T07:58:38.436Z,88411.00
2023-05-24T07:59:38.408Z,88413.00
2023-05-24T08:00:38.407Z,88411.00
2023-05-24T08:01:38.416Z,88411.00
2023-05-24T08:02:38.605Z,88409.00
2023-05-24T08:03:38.527Z,88409.00
2023-05-24T08:04:38.407Z,88407.00
2023-05-24T08:05:38.451Z,88411.00
2023-05-24T08:06:38.429Z,88409.00
2023-05-24T08:07:38.412Z,88411.00
2023-05-24T08:08:38.409Z,88413.00
2023-05-24T08:09:38.408Z,88413.00
2023-05-24T08:10:38.431Z,88411.00
2023-05-24T08:11:38.427Z,88409.00
2023-05-24T08:12:38.441Z,88411.00
2023-05-24T08:13:38.429Z,88411.00
2023-05-24T08:14:38.439Z,88409.00
2023-05-24T08:15:38.445Z,88409.00
2023-05-24T08:16:38.517Z,88409.00
2023-05-24T08:17:38.525Z,88409.00
2023-05-24T08:18:38.494Z,88409.00
2023-05-24T08:19:38.465Z,88407.00
2023-05-24T08:20:38.542Z,88409.00
2023-05-24T08:21:38.490Z,88409.00
2023-05-24T08:22:38.498Z,88407.00
2023-05-24T08:23:38.479Z,88407.00
2023-05-24T08:24:38.477Z,88411.00
2023-05-24T08:25:38.496Z,88411.00
2023-05-24T08:26:38.492Z,88409.00
2023-05-24T08:27:38.480Z,88409.00
2023-05-24T08:28:38.560Z,88411.00
2023-05-24T08:29:38.479Z,88409.00
2023-05-24T08:30:38.492Z,88411.00
2023-05-24T08:31:38.596Z,88411.00
2023-05-24T08:32:38.584Z,88413.00
2023-05-24T08:33:38.488Z,88411.00
2023-05-24T08:34:38.501Z,88413.00
2023-05-24T08:35:38.532Z,88413.00
2023-05-24T08:36:38.499Z,88414.00
2023-05-24T08:37:38.503Z,88413.00
2023-05-24T08:38:38.513Z,88411.00
2023-05-24T08:39:38.519Z,88407.00
2023-05-24T08:40:38.508Z,88405.00
2023-05-24T08:41:38.511Z,88403.00
2023-05-24T08:42:38.509Z,88405.00
2023-05-24T08:43:38.518Z,88403.00
2023-05-24T08:44:38.519Z,88401.00
2023-05-24T08:45:38.571Z,88403.00
2023-05-24T08:46:38.630Z,88401.00
2023-05-24T08:47:38.565Z,88405.00
2023-05-24T08:48:38.546Z,88405.00
2023-05-24T08:49:38.528Z,88411.00
2023-05-24T08:50:38.530Z,88409.00
2023-05-24T08:51:38.529Z,88409.00
2023-05-24T08:52:38.534Z,88407.00
2023-05-24T08:53:38.618Z,88409.00
2023-05-24T08:54:38.541Z,88409.00
2023-05-24T08:55:38.533Z,88409.00
2023-05-24T08:56:38.548Z,88409.00
2023-05-24T08:57:38.544Z,88405.00
2023-05-24T08:58:38.563Z,88409.00
2023-05-24T08:59:38.568Z,88409.00
2023-05-24T09:00:38.591Z,88409.00
2023-05-24T09:01:38.669Z,88403.00
2023-05-24T09:02:38.624Z,88405.00
2023-05-24T09:03:38.764Z,88403.00
2023-05-24T09:04:38.609Z,88401.00
2023-05-24T09:05:38.650Z,88405.00
2023-05-24T09:06:38.624Z,88401.00
2023-05-24T09:07:38.625Z,88401.00
2023-05-24T09:08:38.652Z,88403.00
2023-05-24T09:09:38.742Z,88405.00
2023-05-24T09:10:52.999Z,88401.00
2023-05-24T09:11:39.692Z,88399.00
2023-05-24T09:12:39.478Z,88401.00
2023-05-24T09:13:38.709Z,88403.00
2023-05-24T09:14:38.745Z,88401.00
2023-05-24T09:15:38.758Z,88401.00
2023-05-24T09:16:38.826Z,88399.00
2023-05-24T09:17:38.889Z,88399.00
2023-05-24T09:18:38.813Z,88401.00
2023-05-24T09:19:38.810Z,88401.00
2023-05-24T09:20:38.881Z,88403.00
2023-05-24T09:21:38.855Z,88401.00
2023-05-24T09:22:41.155Z,88405.00
2023-05-24T09:23:38.883Z,88407.00
2023-05-24T09:24:38.923Z,88405.00
2023-05-24T09:25:38.922Z,88405.00
2023-05-24T09:26:38.936Z,88399.00
2023-05-24T09:27:39.081Z,88403.00
2023-05-24T09:28:38.987Z,88403.00
2023-05-24T09:29:38.971Z,88403.00
2023-05-24T09:30:39.016Z,88401.00
2023-05-24T09:31:39.126Z,88397.00
2023-05-24T09:32:39.085Z,88399.00
2023-05-24T09:33:39.039Z,88397.00
2023-05-24T09:34:39.047Z,88399.00
2023-05-24T09:35:39.068Z,88397.00
2023-05-24T09:36:39.084Z,88399.00
2023-05-24T09:37:39.224Z,88397.00
2023-05-24T09:38:39.123Z,88397.00
2023-05-24T09:39:39.117Z,88397.00
2023-05-24T09:40:39.158Z,88399.00
2023-05-24T09:41:39.154Z,88395.00
2023-05-24T09:42:39.153Z,88397.00
2023-05-24T09:43:39.160Z,88395.00
2023-05-24T09:44:39.170Z,88397.00
2023-05-24T09:45:39.188Z,88397.00
2023-05-24T09:46:39.212Z,88397.00
2023-05-24T09:47:39.237Z,88397.00
2023-05-24T09:48:39.237Z,88399.00
2023-05-24T09:49:39.250Z,88401.00
2023-05-24T09:50:39.265Z,88399.00
2023-05-24T09:51:39.376Z,88405.00
2023-05-24T09:52:39.316Z,88403.00
2023-05-24T09:53:39.335Z,88405.00
2023-05-24T09:54:39.344Z,88407.00
2023-05-24T09:55:39.358Z,88409.00
2023-05-24T09:56:39.381Z,88409.00
2023-05-24T09:57:39.392Z,88411.00
2023-05-24T09:58:39.416Z,88413.00
2023-05-24T09:59:39.428Z,88413.00
2023-05-24T10:00:39.608Z,88413.00
2023-05-24T10:01:39.527Z,88416.00
2023-05-24T10:02:45.398Z,88413.00
2023-05-24T10:03:40.575Z,88411.00
2023-05-24T10:04:39.536Z,88407.00
2023-05-24T10:05:39.523Z,88409.00
2023-05-24T10:06:39.530Z,88407.00
2023-05-24T10:07:39.543Z,88405.00
2023-05-24T10:08:39.535Z,88405.00
2023-05-24T10:09:39.545Z,88399.00
2023-05-24T10:10:39.581Z,88403.00
2023-05-24T10:11:39.576Z,88403.00
2023-05-24T10:12:39.603Z,88403.00
2023-05-24T10:13:39.614Z,88403.00
2023-05-24T10:14:39.622Z,88407.00
2023-05-24T10:15:39.632Z,88405.00
2023-05-24T10:16:39.709Z,88407.00
2023-05-24T10:17:39.693Z,88409.00
2023-05-24T10:18:39.664Z,88409.00
2023-05-24T10:19:39.690Z,88411.00
2023-05-24T10:20:39.764Z,88411.00
2023-05-24T10:21:39.767Z,88409.00
2023-05-24T10:22:39.736Z,88413.00
2023-05-24T10:23:39.747Z,88414.00
2023-05-24T10:24:39.753Z,88416.00
2023-05-24T10:25:39.760Z,88422.00
2023-05-24T10:26:39.782Z,88424.00
2023-05-24T10:27:39.820Z,88426.00
2023-05-24T10:28:39.885Z,88426.00
2023-05-24T10:29:39.922Z,88424.00
2023-05-24T10:30:40.044Z,88426.00
2023-05-24T10:31:40.148Z,88428.00
2023-05-24T10:32:40.128Z,88426.00
2023-05-24T10:33:40.142Z,88428.00
2023-05-24T10:34:40.184Z,88428.00
2023-05-24T10:35:40.232Z,88430.00
2023-05-24T10:36:40.329Z,88428.00
2023-05-24T10:37:40.331Z,88424.00
2023-05-24T10:38:40.371Z,88424.00
2023-05-24T10:39:40.411Z,88420.00
2023-05-24T10:40:40.443Z,88418.00
2023-05-24T10:41:40.457Z,88420.00
2023-05-24T10:42:40.473Z,88420.00
2023-05-24T10:43:40.484Z,88418.00
2023-05-24T10:44:40.493Z,88416.00
2023-05-24T10:45:40.571Z,88416.00
2023-05-24T10:46:40.583Z,88416.00
2023-05-24T10:47:40.610Z,88414.00
2023-05-24T10:48:40.758Z,88414.00
2023-05-24T10:49:40.590Z,88411.00
2023-05-24T10:50:40.750Z,88411.00
2023-05-24T10:51:40.645Z,88411.00
2023-05-24T10:52:40.656Z,88409.00
2023-05-24T10:53:40.640Z,88409.00
2023-05-24T10:54:49.643Z,88409.00
2023-05-24T10:55:41.669Z,88407.00
2023-05-24T10:56:40.685Z,88407.00
2023-05-24T10:57:40.711Z,88405.00
2023-05-24T10:58:40.717Z,88405.00
2023-05-24T10:59:40.718Z,88403.00
2023-05-24T11:00:40.754Z,88401.00
2023-05-24T11:01:40.802Z,88401.00
2023-05-24T11:02:40.785Z,88397.00
2023-05-24T11:03:40.777Z,88395.00
2023-05-24T11:04:40.795Z,88395.00
2023-05-24T11:05:40.873Z,88397.00
2023-05-24T11:06:40.832Z,88397.00
2023-05-24T11:07:40.834Z,88395.00
2023-05-24T11:08:40.840Z,88397.00
2023-05-24T11:09:40.857Z,88397.00
2023-05-24T11:10:42.799Z,88399.00
2023-05-24T11:11:40.879Z,88399.00
2023-05-24T11:12:40.885Z,88399.00
2023-05-24T11:13:40.921Z,88401.00
2023-05-24T11:14:40.917Z,88401.00
2023-05-24T11:15:40.917Z,88405.00
2023-05-24T11:16:41.336Z,88405.00
2023-05-24T11:17:43.380Z,88405.00
2023-05-24T11:18:41.136Z,88407.00
2023-05-24T11:19:41.180Z,88407.00
2023-05-24T11:20:41.532Z,88407.00
2023-05-24T11:21:41.306Z,88407.00
2023-05-24T11:22:41.383Z,88409.00
2023-05-24T11:23:41.409Z,88407.00
2023-05-24T11:24:41.472Z,88405.00
2023-05-24T11:25:41.521Z,88407.00
2023-05-24T11:26:41.571Z,88409.00
2023-05-24T11:27:41.632Z,88409.00
2023-05-24T11:28:41.755Z,88413.00
2023-05-24T11:29:41.723Z,88413.00
2023-05-24T11:30:42.055Z,88411.00
2023-05-24T11:31:44.598Z,88413.00
2023-05-24T11:32:41.877Z,88414.00
2023-05-24T11:33:41.853Z,88413.00
2023-05-24T11:34:41.861Z,88413.00
2023-05-24T11:35:41.873Z,88411.00
2023-05-24T11:36:41.882Z,88411.00
2023-05-24T11:37:46.479Z,88413.00
2023-05-24T11:38:41.910Z,88409.00
2023-05-24T11:39:41.913Z,88411.00
2023-05-24T11:40:42.136Z,88411.00
2023-05-24T11:41:41.951Z,88413.00
2023-05-24T11:42:41.973Z,88409.00
2023-05-24T11:43:41.976Z,88411.00
2023-05-24T11:44:41.992Z,88413.00